Terminal Aerodrome Forecast
Issued by NWS Boston, MA

Home | Current Version | Previous Version | Text Only | Print | Product List | Glossary On
Versions: 1 2 3 4 5 6 7 8 9 10 11 12 13 14 15 16 17 18 19 20 21
000
FTUS41 KBOX 230542
TAFORH
TAF
KORH 230542Z 2306/2406 06010G18KT 3SM -SHRA BR OVC003
     FM231300 06011G29KT 4SM -SHRA OVC008
     FM231800 07013G34KT P6SM -SHRAPL OVC003
     FM232300 07016G37KT 3SM PL OVC003
     FM240200 06015G36KT 3SM -RAPL BR OVC008
     FM240400 06017G37KT 1SM -RAPL BR OVC008=

USA.gov is the U.S. government's official web portal to all federal, state and local government web resources and services.